createdAt,value
2018-12-01T00:01:02.416Z,40.90
2018-12-01T00:03:35.256Z,34.07
2018-12-01T00:06:06.056Z,39.43
2018-12-01T00:08:36.375Z,40.60
2018-12-01T00:11:06.690Z,44.63
2018-12-01T00:13:36.980Z,43.87
2018-12-01T00:16:07.881Z,42.10
2018-12-01T00:18:38.127Z,41.00
2018-12-01T00:21:08.316Z,39.67
2018-12-01T00:23:39.060Z,41.67
2018-12-01T00:26:10.367Z,42.53
2018-12-01T00:28:41.078Z,42.43
2018-12-01T00:31:12.431Z,42.33
2018-12-01T00:33:43.694Z,40.33
2018-12-01T00:36:15.934Z,37.50
2018-12-01T00:38:47.461Z,42.90
2018-12-01T00:41:18.727Z,41.23
2018-12-01T00:43:48.958Z,45.70
2018-12-01T00:46:19.657Z,43.57
2018-12-01T00:48:50.214Z,44.00
2018-12-01T00:51:20.978Z,51.30
2018-12-01T00:53:51.698Z,39.57
2018-12-01T00:56:23.080Z,42.87
2018-12-01T00:58:53.154Z,42.70
2018-12-01T01:01:24.353Z,42.57
2018-12-01T01:03:54.571Z,39.73
2018-12-01T01:06:24.635Z,43.50
2018-12-01T01:08:55.025Z,40.13
2018-12-01T01:11:25.863Z,41.00
2018-12-01T01:13:56.595Z,40.60
2018-12-01T01:16:27.346Z,47.30
2018-12-01T01:18:57.951Z,41.57
2018-12-01T01:21:27.982Z,40.90
2018-12-01T01:23:59.251Z,46.53
2018-12-01T01:26:30.570Z,43.80
2018-12-01T01:29:02.517Z,42.80
2018-12-01T01:31:32.795Z,38.53
2018-12-01T01:34:02.791Z,42.50
2018-12-01T01:36:32.677Z,42.97
2018-12-01T01:39:03.864Z,36.97
2018-12-01T01:41:34.498Z,37.13
2018-12-01T01:44:04.684Z,39.97
2018-12-01T01:46:35.917Z,40.70
2018-12-01T01:49:06.986Z,40.23
2018-12-01T01:51:37.058Z,38.47
2018-12-01T01:54:08.288Z,43.67
2018-12-01T01:56:38.377Z,44.43
2018-12-01T01:59:08.658Z,41.57
2018-12-01T02:01:40.112Z,46.13
2018-12-01T02:04:10.220Z,41.33
2018-12-01T02:06:41.997Z,51.10
2018-12-01T02:09:12.176Z,48.57
2018-12-01T02:11:42.223Z,49.87
2018-12-01T02:14:12.854Z,48.37
2018-12-01T02:16:43.934Z,48.97
2018-12-01T02:19:15.378Z,43.60
2018-12-01T02:21:45.425Z,39.87
2018-12-01T02:24:15.498Z,49.40
2018-12-01T02:26:45.649Z,39.83
2018-12-01T02:29:17.295Z,43.23
2018-12-01T02:31:48.241Z,41.27
2018-12-01T02:34:18.357Z,45.57
2018-12-01T02:36:49.114Z,42.63
2018-12-01T02:39:19.730Z,48.73
2018-12-01T02:41:49.777Z,45.50
2018-12-01T02:44:36.774Z,41.00
2018-12-01T02:47:11.006Z,40.67
2018-12-01T02:49:41.708Z,43.20
2018-12-01T02:52:11.899Z,41.30
2018-12-01T02:54:43.080Z,45.63
2018-12-01T02:57:13.832Z,42.20
2018-12-01T02:59:44.454Z,43.73
2018-12-01T03:02:15.390Z,39.40
2018-12-01T03:04:46.243Z,43.63
2018-12-01T03:07:17.486Z,42.03
2018-12-01T03:09:47.631Z,43.63
2018-12-01T03:12:18.260Z,43.33
2018-12-01T03:14:48.357Z,48.70
2018-12-01T03:17:19.515Z,53.43
2018-12-01T03:19:51.278Z,50.17
2018-12-01T03:22:21.274Z,43.43
2018-12-01T03:24:52.661Z,48.80
2018-12-01T03:27:24.521Z,45.50
2018-12-01T03:29:55.246Z,46.27
2018-12-01T03:32:27.547Z,44.30
2018-12-01T03:34:57.647Z,51.30
2018-12-01T03:37:27.690Z,47.03
2018-12-01T03:39:58.506Z,55.20
2018-12-01T03:42:28.770Z,45.73
2018-12-01T03:44:59.474Z,47.67
2018-12-01T03:47:32.416Z,44.80
2018-12-01T03:50:03.117Z,45.27
2018-12-01T03:52:33.241Z,50.20
2018-12-01T03:55:04.594Z,44.57
2018-12-01T03:57:37.684Z,55.57
2018-12-01T04:00:08.831Z,46.73
2018-12-01T04:02:41.615Z,48.30
2018-12-01T04:05:12.941Z,52.97
2018-12-01T04:07:43.033Z,48.13
2018-12-01T04:10:14.445Z,46.30
2018-12-01T04:12:44.855Z,46.40
2018-12-01T04:15:15.133Z,52.13
2018-12-01T04:17:45.312Z,46.90
2018-12-01T04:20:16.774Z,46.23
2018-12-01T04:22:47.369Z,41.60
2018-12-01T04:25:17.578Z,43.90
2018-12-01T04:27:49.477Z,45.90
2018-12-01T04:30:23.649Z,48.60
2018-12-01T04:32:53.860Z,46.53
2018-12-01T04:35:25.577Z,49.57
2018-12-01T04:37:57.253Z,41.20
2018-12-01T04:40:27.935Z,52.87
2018-12-01T04:42:58.105Z,48.50
2018-12-01T04:45:28.206Z,47.67
2018-12-01T04:47:58.361Z,43.07
2018-12-01T04:50:29.724Z,42.27
2018-12-01T04:53:00.464Z,47.73
2018-12-01T04:55:30.575Z,40.70
2018-12-01T04:58:00.641Z,42.60
2018-12-01T05:00:30.790Z,43.77
2018-12-01T05:03:00.948Z,37.80
2018-12-01T05:05:33.101Z,33.83
2018-12-01T05:08:03.249Z,37.00
2018-12-01T05:10:33.911Z,38.23
2018-12-01T05:13:03.907Z,42.20
2018-12-01T05:15:35.055Z,48.23
2018-12-01T05:18:05.155Z,44.30
2018-12-01T05:20:35.996Z,38.37
2018-12-01T05:23:06.922Z,40.73
2018-12-01T05:25:37.571Z,37.73
2018-12-01T05:28:09.330Z,40.73
2018-12-01T05:30:40.171Z,37.37
2018-12-01T05:33:10.324Z,34.70
2018-12-01T05:35:41.134Z,30.00
2018-12-01T05:38:11.869Z,35.50
2018-12-01T05:40:43.241Z,45.90
2018-12-01T05:43:13.350Z,43.03
2018-12-01T05:45:44.009Z,35.53
2018-12-01T05:48:15.289Z,39.93
2018-12-01T05:50:45.952Z,38.13
2018-12-01T05:53:17.870Z,33.10
2018-12-01T05:55:48.769Z,50.63
2018-12-01T05:58:20.123Z,39.53
2018-12-01T06:00:51.682Z,40.03
2018-12-01T06:03:22.855Z,36.33
2018-12-01T06:05:52.850Z,35.70
2018-12-01T06:08:23.589Z,37.27
2018-12-01T06:10:55.867Z,34.00
2018-12-01T06:13:26.518Z,37.40
2018-12-01T06:15:58.446Z,35.83
2018-12-01T06:18:30.629Z,33.17
2018-12-01T06:21:01.342Z,45.20
2018-12-01T06:23:33.954Z,36.67
2018-12-01T06:26:04.098Z,40.47
2018-12-01T06:28:35.574Z,31.60
2018-12-01T06:31:06.370Z,40.13
2018-12-01T06:33:37.721Z,43.13
2018-12-01T06:36:07.946Z,39.23
2018-12-01T06:38:39.277Z,37.13
2018-12-01T06:41:10.963Z,41.13
2018-12-01T06:43:40.933Z,33.27
2018-12-01T06:46:11.077Z,40.27
2018-12-01T06:48:42.376Z,38.20
2018-12-01T06:51:13.731Z,36.67
2018-12-01T06:53:46.079Z,37.23
2018-12-01T06:56:18.473Z,34.37
2018-12-01T06:58:48.666Z,36.40
2018-12-01T07:01:20.158Z,41.30
2018-12-01T07:03:50.672Z,37.03
2018-12-01T07:06:20.773Z,41.00
2018-12-01T07:08:52.399Z,52.80
2018-12-01T07:11:23.147Z,38.90
2018-12-01T07:13:55.191Z,36.07
2018-12-01T07:16:26.488Z,33.97
2018-12-01T07:19:22.718Z,36.53
2018-12-01T07:21:53.994Z,35.50
2018-12-01T07:24:24.528Z,35.50
2018-12-01T07:26:56.149Z,34.33
2018-12-01T07:29:26.924Z,37.50
2018-12-01T07:31:57.048Z,36.37
2018-12-01T07:34:27.005Z,31.60
2018-12-01T07:36:58.911Z,29.50
2018-12-01T07:39:30.064Z,30.93
2018-12-01T07:42:00.262Z,35.00
2018-12-01T07:44:33.090Z,31.30
2018-12-01T07:47:04.544Z,38.50
2018-12-01T07:49:35.055Z,36.37
2018-12-01T07:52:05.377Z,33.23
2018-12-01T07:54:35.558Z,42.07
2018-12-01T07:57:06.801Z,31.50
2018-12-01T07:59:38.093Z,37.60
2018-12-01T08:02:08.226Z,33.63
2018-12-01T08:04:39.377Z,38.07
2018-12-01T08:07:10.378Z,25.03
2018-12-01T08:09:41.490Z,32.10
2018-12-01T08:12:12.102Z,29.50
2018-12-01T08:14:42.567Z,35.23
2018-12-01T08:17:13.599Z,33.67
2018-12-01T08:19:44.849Z,31.97
2018-12-01T08:22:15.678Z,31.00
2018-12-01T08:24:46.100Z,31.03
2018-12-01T08:27:17.578Z,28.17
2018-12-01T08:29:48.798Z,31.70
2018-12-01T08:32:19.643Z,31.90
2018-12-01T08:34:50.201Z,30.33
2018-12-01T08:37:20.880Z,30.40
2018-12-01T08:39:51.418Z,26.53
2018-12-01T08:42:23.214Z,28.97
2018-12-01T08:44:53.246Z,34.47
2018-12-01T08:47:23.764Z,26.23
2018-12-01T08:49:54.238Z,33.03
2018-12-01T08:52:25.534Z,39.30
2018-12-01T08:54:56.202Z,29.77
2018-12-01T08:57:27.414Z,31.23
2018-12-01T08:59:57.609Z,34.10
2018-12-01T09:02:27.763Z,34.53
2018-12-01T09:04:58.356Z,36.63
2018-12-01T09:07:30.173Z,33.83
2018-12-01T09:10:01.457Z,31.00
2018-12-01T09:12:31.568Z,33.67
2018-12-01T09:15:02.744Z,34.80
2018-12-01T09:17:34.478Z,31.00
2018-12-01T09:20:04.871Z,29.77
2018-12-01T09:22:34.992Z,34.37
2018-12-01T09:25:05.226Z,26.00
2018-12-01T09:27:35.996Z,32.83
2018-12-01T09:30:13.567Z,27.63
2018-12-01T09:32:45.426Z,24.50
2018-12-01T09:35:16.906Z,29.70
2018-12-01T09:37:48.521Z,32.60
2018-12-01T09:40:21.046Z,28.23
2018-12-01T09:42:52.191Z,21.67
2018-12-01T09:45:24.116Z,26.37
2018-12-01T09:47:55.567Z,25.00
2018-12-01T09:50:27.028Z,23.57
2018-12-01T09:52:58.231Z,20.20
2018-12-01T09:55:31.175Z,25.00
2018-12-01T09:58:01.767Z,23.13
2018-12-01T10:00:34.082Z,24.30
2018-12-01T10:03:07.592Z,27.77
2018-12-01T10:05:38.004Z,29.57
2018-12-01T10:08:08.571Z,24.60
2018-12-01T10:10:38.714Z,27.53
2018-12-01T10:13:08.809Z,18.50
2018-12-01T10:15:39.665Z,19.60
2018-12-01T10:18:10.782Z,19.13
2018-12-01T10:20:42.777Z,26.43
2018-12-01T10:23:14.139Z,19.93
2018-12-01T10:25:44.872Z,25.57
2018-12-01T10:28:15.497Z,25.40
2018-12-01T10:30:46.106Z,24.10
2018-12-01T10:33:16.744Z,25.70
2018-12-01T10:35:46.904Z,22.03
2018-12-01T10:38:18.280Z,28.50
2018-12-01T10:40:48.355Z,18.17
2018-12-01T10:43:18.492Z,18.27
2018-12-01T10:45:48.652Z,27.50
2018-12-01T10:48:18.801Z,14.40
2018-12-01T10:50:49.590Z,19.17
2018-12-01T10:53:20.175Z,16.13
2018-12-01T10:55:51.652Z,15.67
2018-12-01T10:58:22.466Z,17.40
2018-12-01T11:00:58.241Z,16.40
2018-12-01T11:03:35.074Z,20.77
2018-12-01T11:06:09.581Z,19.30
2018-12-01T11:08:39.753Z,19.03
2018-12-01T11:11:10.521Z,18.57
2018-12-01T11:13:41.450Z,13.63
2018-12-01T11:16:14.367Z,22.63
2018-12-01T11:18:44.502Z,18.93
2018-12-01T11:21:15.660Z,15.60
2018-12-01T11:23:46.473Z,12.63
2018-12-01T11:26:16.567Z,18.03
2018-12-01T11:28:47.673Z,12.20
2018-12-01T11:31:18.470Z,18.23
2018-12-01T11:33:51.400Z,18.73
2018-12-01T11:36:22.812Z,11.67
2018-12-01T11:38:54.258Z,15.43
2018-12-01T11:41:25.012Z,15.20
2018-12-01T11:43:56.290Z,8.87
2018-12-01T11:46:27.292Z,12.10
2018-12-01T11:48:58.238Z,10.10
2018-12-01T11:51:28.976Z,13.87
2018-12-01T11:53:59.779Z,12.63
2018-12-01T11:56:30.451Z,16.37
2018-12-01T11:59:02.521Z,10.87
2018-12-01T12:01:33.158Z,13.93
2018-12-01T12:04:05.165Z,7.80
2018-12-01T12:06:36.601Z,15.20
2018-12-01T12:09:09.458Z,12.97
2018-12-01T12:11:40.759Z,8.80
2018-12-01T12:14:12.250Z,10.87
2018-12-01T12:16:42.467Z,9.43
2018-12-01T12:19:12.598Z,9.40
2018-12-01T12:21:43.366Z,10.43
2018-12-01T12:24:14.198Z,9.70
2018-12-01T12:26:44.834Z,9.60
2018-12-01T12:29:16.385Z,11.83
2018-12-01T12:31:46.659Z,7.47
2018-12-01T12:34:16.914Z,10.13
2018-12-01T12:36:48.091Z,7.27
2018-12-01T12:39:19.722Z,7.67
2018-12-01T12:41:51.482Z,10.77
2018-12-01T12:44:22.836Z,7.80
2018-12-01T12:46:53.966Z,4.87
2018-12-01T12:49:25.564Z,10.17
2018-12-01T12:51:57.776Z,10.70
2018-12-01T12:54:28.473Z,21.30
2018-12-01T12:57:00.332Z,10.30
2018-12-01T12:59:31.042Z,9.70
2018-12-01T13:02:01.626Z,8.00
2018-12-01T13:04:32.262Z,7.70
2018-12-01T13:07:03.054Z,7.83
2018-12-01T13:09:33.919Z,6.43
2018-12-01T13:12:04.760Z,7.27
2018-12-01T13:14:34.757Z,10.23
2018-12-01T13:17:07.250Z,9.57
2018-12-01T13:19:37.469Z,12.27
2018-12-01T13:22:08.346Z,8.23
2018-12-01T13:24:40.387Z,12.53
2018-12-01T13:27:10.958Z,10.47
2018-12-01T13:29:41.632Z,10.93
2018-12-01T13:32:12.478Z,16.90
2018-12-01T13:34:43.770Z,6.77
2018-12-01T13:37:14.362Z,12.80
2018-12-01T13:39:45.203Z,10.10
2018-12-01T13:42:15.873Z,6.47
2018-12-01T13:44:46.179Z,8.40
2018-12-01T13:47:16.214Z,6.70
2018-12-01T13:49:47.128Z,7.73
2018-12-01T13:52:17.100Z,7.70
2018-12-01T13:54:47.354Z,15.13
2018-12-01T13:57:17.526Z,6.60
2018-12-01T13:59:50.209Z,15.13
2018-12-01T14:02:21.596Z,6.97
2018-12-01T14:04:53.071Z,4.43
2018-12-01T14:07:23.908Z,7.37
2018-12-01T14:09:54.591Z,9.13
2018-12-01T14:12:25.650Z,11.33
2018-12-01T14:14:56.715Z,5.23
2018-12-01T14:17:26.874Z,11.70
2018-12-01T14:19:57.185Z,11.37
2018-12-01T14:22:27.743Z,8.47
2018-12-01T14:24:57.974Z,11.70
2018-12-01T14:27:28.099Z,12.47
2018-12-01T14:29:59.057Z,14.13
2018-12-01T14:32:29.918Z,9.30
2018-12-01T14:35:00.097Z,12.67
2018-12-01T14:37:31.204Z,12.67
2018-12-01T14:40:02.001Z,9.60
2018-12-01T14:42:34.058Z,8.77
2018-12-01T14:45:06.774Z,15.17
2018-12-01T14:47:36.903Z,14.47
2018-12-01T14:50:10.698Z,10.77
2018-12-01T14:52:41.085Z,9.60
2018-12-01T14:55:16.599Z,9.63
2018-12-01T14:57:47.593Z,13.47
2018-12-01T15:00:24.950Z,11.23
2018-12-01T15:02:56.273Z,10.47
2018-12-01T15:05:27.381Z,10.50
2018-12-01T15:07:57.553Z,11.13
2018-12-01T15:10:29.149Z,11.40
2018-12-01T15:12:59.330Z,11.73
2018-12-01T15:15:30.886Z,10.00
2018-12-01T15:18:01.927Z,10.00
2018-12-01T15:20:32.133Z,13.27
2018-12-01T15:23:02.448Z,8.53
2018-12-01T15:25:33.177Z,12.73
2018-12-01T15:28:04.186Z,19.67
2018-12-01T15:30:34.977Z,11.33
2018-12-01T15:33:13.626Z,18.10
2018-12-01T15:35:45.784Z,10.07
2018-12-01T15:38:16.259Z,15.60
2018-12-01T15:40:52.767Z,11.17
2018-12-01T15:43:23.707Z,10.30
2018-12-01T15:45:53.909Z,8.30
2018-12-01T15:48:24.776Z,12.97
2018-12-01T15:50:56.824Z,8.30
2018-12-01T15:53:27.678Z,15.67
2018-12-01T15:55:58.392Z,8.50
2018-12-01T15:58:28.585Z,13.13
2018-12-01T16:01:01.098Z,8.93
2018-12-01T16:03:31.371Z,10.30
2018-12-01T16:06:02.445Z,11.37
2018-12-01T16:08:33.129Z,16.83
2018-12-01T16:11:03.325Z,15.03
2018-12-01T16:13:35.710Z,16.70
2018-12-01T16:16:10.546Z,14.93
2018-12-01T16:18:41.815Z,12.40
2018-12-01T16:21:12.686Z,10.23
2018-12-01T16:23:43.393Z,13.33
2018-12-01T16:26:14.022Z,11.07
2018-12-01T16:28:44.933Z,15.40
2018-12-01T16:31:16.731Z,15.60
2018-12-01T16:33:46.895Z,13.03
2018-12-01T16:36:17.269Z,11.87
2018-12-01T16:38:48.029Z,11.37
2018-12-01T16:41:30.440Z,12.00
2018-12-01T16:44:01.147Z,12.07
2018-12-01T16:46:31.405Z,13.57
2018-12-01T16:49:02.209Z,12.30
2018-12-01T16:51:33.172Z,10.20
2018-12-01T16:54:03.355Z,16.43
2018-12-01T16:56:33.710Z,18.07
2018-12-01T16:59:05.274Z,17.37
2018-12-01T17:01:35.405Z,16.43
2018-12-01T17:04:05.731Z,15.43
2018-12-01T17:06:36.481Z,18.50
2018-12-01T17:09:09.213Z,22.20
2018-12-01T17:11:39.436Z,13.93
2018-12-01T17:14:10.922Z,15.77
2018-12-01T17:16:41.779Z,14.50
2018-12-01T17:19:12.698Z,16.00
2018-12-01T17:21:43.455Z,23.37
2018-12-01T17:24:13.570Z,15.20
2018-12-01T17:26:44.119Z,26.00
2018-12-01T17:29:15.467Z,14.60
2018-12-01T17:31:46.267Z,19.97
2018-12-01T17:34:19.315Z,13.93
2018-12-01T17:36:50.911Z,12.80
2018-12-01T17:39:21.774Z,20.20
2018-12-01T17:41:52.139Z,13.27
2018-12-01T17:44:22.901Z,14.10
2018-12-01T17:46:53.027Z,13.53
2018-12-01T17:49:23.111Z,17.50
2018-12-01T17:51:53.289Z,13.40
2018-12-01T17:54:23.939Z,17.10
2018-12-01T17:56:53.992Z,18.40
2018-12-01T17:59:24.828Z,10.33
2018-12-01T18:01:56.137Z,14.03
2018-12-01T18:04:26.300Z,16.63
2018-12-01T18:06:57.230Z,14.80
2018-12-01T18:09:28.482Z,14.27
2018-12-01T18:12:00.469Z,21.37
2018-12-01T18:14:33.803Z,14.97
2018-12-01T18:17:04.929Z,15.60
2018-12-01T18:19:35.157Z,17.67
2018-12-01T18:22:06.486Z,12.43
2018-12-01T18:24:37.702Z,15.43
2018-12-01T18:27:08.253Z,14.53
2018-12-01T18:29:38.637Z,10.10
2018-12-01T18:32:08.837Z,15.10
2018-12-01T18:34:39.967Z,15.67
2018-12-01T18:37:11.164Z,13.57
2018-12-01T18:39:42.382Z,15.43
2018-12-01T18:42:12.644Z,17.57
2018-12-01T18:44:43.360Z,13.23
2018-12-01T18:47:14.386Z,13.77
2018-12-01T18:49:44.454Z,12.20
2018-12-01T18:52:14.742Z,16.27
2018-12-01T18:54:45.048Z,8.10
2018-12-01T18:57:15.801Z,11.30
2018-12-01T18:59:46.914Z,10.67
2018-12-01T19:02:19.006Z,11.20
2018-12-01T19:04:49.196Z,9.83
2018-12-01T19:07:20.936Z,18.30
2018-12-01T19:09:51.909Z,13.77
2018-12-01T19:12:23.872Z,15.33
2018-12-01T19:14:54.720Z,11.30
2018-12-01T19:17:26.051Z,12.07
2018-12-01T19:19:57.047Z,10.07
2018-12-01T19:22:27.746Z,11.07
2018-12-01T19:24:58.584Z,8.57
2018-12-01T19:27:30.348Z,12.50
2018-12-01T19:30:05.204Z,12.73
2018-12-01T19:32:33.853Z,17.70
2018-12-01T19:35:04.208Z,11.50
2018-12-01T19:37:35.263Z,19.27
2018-12-01T19:40:09.891Z,11.57
2018-12-01T19:42:40.759Z,12.30
2018-12-01T19:45:11.299Z,18.33
2018-12-01T19:47:42.754Z,10.07
2018-12-01T19:50:30.135Z,12.50
2018-12-01T19:53:00.378Z,19.33
2018-12-01T19:55:35.173Z,22.03
2018-12-01T19:58:13.363Z,14.00
2018-12-01T20:00:45.572Z,13.03
2018-12-01T20:03:19.687Z,15.90
2018-12-01T20:05:49.890Z,10.83
2018-12-01T20:08:21.449Z,11.17
2018-12-01T20:10:54.582Z,12.30
2018-12-01T20:13:37.042Z,8.83
2018-12-01T20:16:18.329Z,12.87
2018-12-01T20:18:48.429Z,12.73
2018-12-01T20:21:18.700Z,10.20
2018-12-01T20:23:49.850Z,12.17
2018-12-01T20:26:20.603Z,10.47
2018-12-01T20:28:51.338Z,17.83
2018-12-01T20:31:22.059Z,11.90
2018-12-01T20:33:54.214Z,12.27
2018-12-01T20:36:33.380Z,16.40
2018-12-01T20:39:17.807Z,12.50
2018-12-01T20:41:48.060Z,13.33
2018-12-01T20:44:18.590Z,14.97
2018-12-01T20:46:49.842Z,21.80
2018-12-01T20:49:21.558Z,15.90
2018-12-01T20:51:52.822Z,13.33
2018-12-01T20:54:37.345Z,12.83
2018-12-01T20:57:17.680Z,19.13
2018-12-01T20:59:48.045Z,19.33
2018-12-01T21:02:19.014Z,13.00
2018-12-01T21:04:49.251Z,17.83
2018-12-01T21:07:19.930Z,20.33
2018-12-01T21:09:50.789Z,13.50
2018-12-01T21:12:22.837Z,13.10
2018-12-01T21:14:54.196Z,13.30
2018-12-01T21:17:24.881Z,13.70
2018-12-01T21:19:56.977Z,25.10
2018-12-01T21:22:26.961Z,14.77
2018-12-01T21:24:57.693Z,14.00
2018-12-01T21:27:28.335Z,13.83
2018-12-01T21:30:00.281Z,10.90
2018-12-01T21:32:30.237Z,13.70
2018-12-01T21:35:01.349Z,17.77
2018-12-01T21:37:31.857Z,12.40
2018-12-01T21:40:01.991Z,12.90
2018-12-01T21:42:33.875Z,14.43
2018-12-01T21:45:04.488Z,10.73
2018-12-01T21:47:35.958Z,9.70
2018-12-01T21:50:08.724Z,17.27
2018-12-01T21:52:40.075Z,9.87
2018-12-01T21:55:11.974Z,15.10
2018-12-01T21:57:43.680Z,19.23
2018-12-01T22:00:17.023Z,10.60
2018-12-01T22:02:49.318Z,9.10
2018-12-01T22:05:21.525Z,18.80
2018-12-01T22:07:52.382Z,15.70
2018-12-01T22:10:23.860Z,16.17
2018-12-01T22:12:54.725Z,12.53
2018-12-01T22:15:25.310Z,16.80
2018-12-01T22:17:55.894Z,9.83
2018-12-01T22:20:27.264Z,10.90
2018-12-01T22:22:57.942Z,10.73
2018-12-01T22:25:28.173Z,12.47
2018-12-01T22:27:59.011Z,10.23
2018-12-01T22:30:29.866Z,8.27
2018-12-01T22:33:01.021Z,10.40
2018-12-01T22:35:32.130Z,10.93
2018-12-01T22:38:03.004Z,7.97
2018-12-01T22:40:34.897Z,7.87
2018-12-01T22:43:11.185Z,7.13
2018-12-01T22:45:42.076Z,7.53
2018-12-01T22:48:17.227Z,8.83
2018-12-01T22:50:49.787Z,6.73
2018-12-01T22:53:19.914Z,5.90
2018-12-01T22:55:50.221Z,8.10
2018-12-01T22:58:22.166Z,8.57
2018-12-01T23:00:57.624Z,17.27
2018-12-01T23:03:30.334Z,7.13
2018-12-01T23:06:01.441Z,7.73
2018-12-01T23:08:31.666Z,5.33
2018-12-01T23:11:01.866Z,8.07
2018-12-01T23:13:32.771Z,4.50
2018-12-01T23:16:04.433Z,6.57
2018-12-01T23:18:35.180Z,8.97
2018-12-01T23:21:06.406Z,4.53
2018-12-01T23:23:37.104Z,4.07
2018-12-01T23:26:07.890Z,4.53
2018-12-01T23:28:38.598Z,6.90
2018-12-01T23:31:08.728Z,7.83
2018-12-01T23:33:38.887Z,6.80
2018-12-01T23:36:09.474Z,11.10
2018-12-01T23:38:40.283Z,12.17
2018-12-01T23:41:10.783Z,11.00
2018-12-01T23:43:42.533Z,6.60
2018-12-01T23:46:12.623Z,5.73
2018-12-01T23:48:43.889Z,9.27
2018-12-01T23:51:14.103Z,6.63
2018-12-01T23:53:44.189Z,3.87
2018-12-01T23:56:14.233Z,5.60
2018-12-01T23:58:44.420Z,8.00
